Time;durP1;ratioP1;P1;durP2;ratioP2;P2;SDS_P1;SDS_P2;PMS_P1;PMS_P2;Temp;Humidity;BMP_temperature;BMP_pressure;BME280_temperature;BME280_humidity;BME280_pressure;Samples;Min_cycle;Max_cycle;Signal;HPM_P1;HPM_P2
2023/12/20 00:01:19;;;;;;;14.90;2.28;;;;;;;;;;5090298;28;20523;-66
2023/12/20 00:03:44;;;;;;;15.40;1.67;;;;;;;;;;5089886;28;20611;-66
2023/12/20 00:06:10;;;;;;;24.02;2.17;;;;;;;;;;5089949;28;20485;-66
2023/12/20 00:08:35;;;;;;;23.95;2.67;;;;;;;;;;5071198;28;20085;-66
2023/12/20 00:11:01;;;;;;;16.63;2.20;;;;;;;;;;5089399;28;20028;-66
2023/12/20 00:13:26;;;;;;;9.05;1.63;;;;;;;;;;5071686;28;20036;-66
2023/12/20 00:15:51;;;;;;;27.05;2.33;;;;;;;;;;5090276;28;20044;-67
2023/12/20 00:18:17;;;;;;;18.30;2.10;;;;;;;;;;5089618;28;20040;-67
2023/12/20 00:20:42;;;;;;;12.75;1.75;;;;;;;;;;5071676;28;20031;-66
2023/12/20 00:23:07;;;;;;;11.07;2.05;;;;;;;;;;5071764;28;20533;-66
2023/12/20 00:25:34;;;;;;;15.02;2.55;;;;;;;;;;5089789;28;20032;-66
2023/12/20 00:27:59;;;;;;;16.55;2.05;;;;;;;;;;5089573;28;20062;-66
2023/12/20 00:30:25;;;;;;;15.40;2.35;;;;;;;;;;5089560;28;20467;-66
2023/12/20 00:32:50;;;;;;;27.33;3.10;;;;;;;;;;5089151;28;20032;-66
2023/12/20 00:35:16;;;;;;;16.80;1.70;;;;;;;;;;5089355;28;20057;-66
2023/12/20 00:37:42;;;;;;;22.40;2.33;;;;;;;;;;5071520;28;20036;-65
2023/12/20 00:40:08;;;;;;;21.33;3.25;;;;;;;;;;5071693;28;20040;-66
2023/12/20 00:42:33;;;;;;;18.27;2.38;;;;;;;;;;5071208;28;20039;-66
2023/12/20 00:45:00;;;;;;;13.20;1.92;;;;;;;;;;5090022;28;20044;-66
2023/12/20 00:47:25;;;;;;;14.60;1.92;;;;;;;;;;5073433;28;20049;-66
2023/12/20 00:49:50;;;;;;;20.77;2.25;;;;;;;;;;5075325;28;20036;-66
2023/12/20 00:52:17;;;;;;;20.35;2.20;;;;;;;;;;5092520;28;20387;-66
2023/12/20 00:54:43;;;;;;;17.17;2.15;;;;;;;;;;5075054;28;20036;-66
2023/12/20 00:57:08;;;;;;;21.70;2.20;;;;;;;;;;5093024;28;20110;-66
2023/12/20 00:59:34;;;;;;;16.25;2.47;;;;;;;;;;5093151;28;20392;-66
2023/12/20 01:01:59;;;;;;;11.55;1.95;;;;;;;;;;5092838;28;20040;-66
2023/12/20 01:04:24;;;;;;;17.83;2.15;;;;;;;;;;5092634;28;20472;-66
2023/12/20 01:06:50;;;;;;;11.88;1.63;;;;;;;;;;5089046;28;20629;-66
2023/12/20 01:09:15;;;;;;;25.35;2.28;;;;;;;;;;5093285;28;20080;-66
2023/12/20 01:11:40;;;;;;;27.70;2.53;;;;;;;;;;5090534;28;20028;-66
2023/12/20 01:14:05;;;;;;;8.98;1.92;;;;;;;;;;5092528;28;20039;-67
2023/12/20 01:16:31;;;;;;;14.70;1.73;;;;;;;;;;5092872;28;20044;-66
2023/12/20 01:18:56;;;;;;;21.00;2.75;;;;;;;;;;5092515;28;20379;-66
2023/12/20 01:21:21;;;;;;;10.82;2.22;;;;;;;;;;5074475;28;20619;-66
2023/12/20 01:23:47;;;;;;;20.85;2.85;;;;;;;;;;5092636;28;20459;-67
2023/12/20 01:26:12;;;;;;;17.48;2.15;;;;;;;;;;5092638;28;20032;-66
2023/12/20 01:28:38;;;;;;;19.67;1.77;;;;;;;;;;5092129;28;20662;-66
2023/12/20 01:31:03;;;;;;;10.57;2.42;;;;;;;;;;5092739;28;20403;-67
2023/12/20 01:33:29;;;;;;;12.65;1.90;;;;;;;;;;5092149;28;20104;-67
2023/12/20 01:35:54;;;;;;;12.20;1.83;;;;;;;;;;5091626;28;20032;-68
2023/12/20 01:38:20;;;;;;;16.98;2.65;;;;;;;;;;5089127;28;20085;-66
2023/12/20 01:40:45;;;;;;;18.35;3.22;;;;;;;;;;5091075;28;20028;-66
2023/12/20 01:43:12;;;;;;;13.07;1.77;;;;;;;;;;5068548;28;20036;-67
2023/12/20 01:45:38;;;;;;;14.68;2.05;;;;;;;;;;5070243;28;20052;-66
2023/12/20 01:48:05;;;;;;;13.85;1.63;;;;;;;;;;5071298;28;20032;-66
2023/12/20 01:50:31;;;;;;;29.60;1.98;;;;;;;;;;5070349;28;20032;-66
2023/12/20 01:52:58;;;;;;;13.82;1.85;;;;;;;;;;5068485;28;20116;-66
2023/12/20 01:55:24;;;;;;;18.27;2.08;;;;;;;;;;5071935;28;20028;-67
2023/12/20 01:57:50;;;;;;;14.13;1.70;;;;;;;;;;5069226;28;20672;-66
2023/12/20 02:00:16;;;;;;;29.38;1.98;;;;;;;;;;5071314;28;20068;-66
2023/12/20 02:02:43;;;;;;;20.80;2.20;;;;;;;;;;5071347;28;20040;-66
2023/12/20 02:05:09;;;;;;;12.07;2.08;;;;;;;;;;5070309;28;20539;-66
2023/12/20 02:07:34;;;;;;;11.80;1.88;;;;;;;;;;5071353;28;20093;-66
2023/12/20 02:10:01;;;;;;;13.07;2.05;;;;;;;;;;5069490;28;20028;-66
2023/12/20 02:12:26;;;;;;;15.32;2.17;;;;;;;;;;5071118;28;20029;-66
2023/12/20 02:14:51;;;;;;;12.77;1.55;;;;;;;;;;5068725;28;20055;-66
2023/12/20 02:17:17;;;;;;;13.45;1.98;;;;;;;;;;5069475;28;20044;-66
2023/12/20 02:19:43;;;;;;;14.45;2.72;;;;;;;;;;5069365;28;20064;-66
2023/12/20 02:22:11;;;;;;;12.55;2.55;;;;;;;;;;5069749;28;20111;-66
2023/12/20 02:24:37;;;;;;;14.95;1.75;;;;;;;;;;5071123;28;20036;-66
2023/12/20 02:27:03;;;;;;;8.80;1.70;;;;;;;;;;5069585;28;20048;-67
2023/12/20 02:29:28;;;;;;;7.43;1.58;;;;;;;;;;5069954;28;20037;-65
2023/12/20 02:31:54;;;;;;;10.75;1.70;;;;;;;;;;5070757;28;20032;-66
2023/12/20 02:34:19;;;;;;;13.77;1.80;;;;;;;;;;5070881;28;20044;-66
2023/12/20 02:36:44;;;;;;;10.80;1.83;;;;;;;;;;5071117;28;20589;-66
2023/12/20 02:39:10;;;;;;;19.33;1.85;;;;;;;;;;5070814;28;20653;-66
2023/12/20 02:41:35;;;;;;;11.27;1.80;;;;;;;;;;5071059;28;20039;-66
2023/12/20 02:44:01;;;;;;;17.45;1.85;;;;;;;;;;5076422;28;20077;-66
2023/12/20 02:46:27;;;;;;;7.60;1.80;;;;;;;;;;5072216;28;20024;-66
2023/12/20 02:48:52;;;;;;;13.07;1.95;;;;;;;;;;5091075;28;20036;-66
2023/12/20 02:51:17;;;;;;;11.10;1.60;;;;;;;;;;5090867;28;20058;-66
2023/12/20 02:53:43;;;;;;;10.20;2.13;;;;;;;;;;5090806;28;20036;-67
2023/12/20 02:56:08;;;;;;;10.05;1.95;;;;;;;;;;5090836;28;20080;-66
2023/12/20 02:58:33;;;;;;;10.05;1.45;;;;;;;;;;5090274;28;20438;-66
2023/12/20 03:00:59;;;;;;;13.55;2.08;;;;;;;;;;5090034;28;20526;-66
2023/12/20 03:03:25;;;;;;;12.40;2.22;;;;;;;;;;5090729;28;20043;-66
2023/12/20 03:05:50;;;;;;;13.23;1.77;;;;;;;;;;5072707;28;20039;-66
2023/12/20 03:08:15;;;;;;;16.63;1.92;;;;;;;;;;5090466;28;20034;-67
2023/12/20 03:10:41;;;;;;;13.52;2.25;;;;;;;;;;5090592;28;20097;-66
2023/12/20 03:13:06;;;;;;;9.93;1.55;;;;;;;;;;5090552;28;20051;-66
2023/12/20 03:15:31;;;;;;;8.45;1.50;;;;;;;;;;5072523;28;20064;-66
2023/12/20 03:17:58;;;;;;;6.97;1.80;;;;;;;;;;5090568;28;20067;-66
2023/12/20 03:20:25;;;;;;;8.43;1.67;;;;;;;;;;5090607;28;20077;-66
2023/12/20 03:22:51;;;;;;;19.02;2.25;;;;;;;;;;5090116;28;20024;-66
2023/12/20 03:25:16;;;;;;;7.07;1.73;;;;;;;;;;5090865;28;20032;-66
2023/12/20 03:27:41;;;;;;;10.25;2.40;;;;;;;;;;5090031;28;20130;-66
2023/12/20 03:30:07;;;;;;;10.45;1.70;;;;;;;;;;5090278;28;20036;-67
2023/12/20 03:32:32;;;;;;;11.65;1.35;;;;;;;;;;5090478;28;20089;-66
2023/12/20 03:34:58;;;;;;;6.47;1.52;;;;;;;;;;5089881;28;20067;-67
2023/12/20 03:37:23;;;;;;;20.15;2.05;;;;;;;;;;5089698;28;20036;-66
2023/12/20 03:39:48;;;;;;;9.25;1.63;;;;;;;;;;5090667;28;20159;-66
2023/12/20 03:42:14;;;;;;;7.93;1.60;;;;;;;;;;5090195;28;20111;-66
2023/12/20 03:44:40;;;;;;;10.32;1.40;;;;;;;;;;5090252;28;20136;-67
2023/12/20 03:47:05;;;;;;;11.73;1.50;;;;;;;;;;5090180;28;20040;-67
2023/12/20 03:49:31;;;;;;;7.97;1.83;;;;;;;;;;5090319;28;20028;-66
2023/12/20 03:51:56;;;;;;;17.58;2.15;;;;;;;;;;5089718;28;20032;-66
2023/12/20 03:54:21;;;;;;;13.50;2.17;;;;;;;;;;5089912;28;20492;-66
2023/12/20 03:56:47;;;;;;;7.55;1.70;;;;;;;;;;5090264;28;20065;-67
2023/12/20 03:59:12;;;;;;;5.80;1.55;;;;;;;;;;5090222;28;20371;-66
2023/12/20 04:01:37;;;;;;;14.70;2.30;;;;;;;;;;5089662;28;20043;-66
2023/12/20 04:04:03;;;;;;;7.32;1.60;;;;;;;;;;5090088;28;20036;-66
2023/12/20 04:06:28;;;;;;;12.25;1.90;;;;;;;;;;5088065;28;20032;-66
2023/12/20 04:08:54;;;;;;;9.27;1.70;;;;;;;;;;5089718;28;20472;-66
2023/12/20 04:11:19;;;;;;;13.10;1.52;;;;;;;;;;5090133;28;20043;-66
2023/12/20 04:13:44;;;;;;;12.88;2.13;;;;;;;;;;5089858;28;20019;-67
2023/12/20 04:16:10;;;;;;;13.40;1.98;;;;;;;;;;5089736;28;20040;-66
2023/12/20 04:18:36;;;;;;;9.57;1.30;;;;;;;;;;5089779;28;20036;-66
2023/12/20 04:21:01;;;;;;;8.05;1.55;;;;;;;;;;5089597;28;20078;-66
2023/12/20 04:23:27;;;;;;;9.07;1.75;;;;;;;;;;5093349;28;20063;-66
2023/12/20 04:25:52;;;;;;;8.40;1.52;;;;;;;;;;5094153;28;20123;-66
2023/12/20 04:28:18;;;;;;;12.43;2.22;;;;;;;;;;5093540;28;20032;-66
2023/12/20 04:30:43;;;;;;;10.40;1.77;;;;;;;;;;5093624;28;20044;-66
2023/12/20 04:33:08;;;;;;;12.65;1.90;;;;;;;;;;5092657;28;20093;-66
2023/12/20 04:35:34;;;;;;;8.68;1.42;;;;;;;;;;5093670;28;20036;-66
2023/12/20 04:37:59;;;;;;;6.60;1.45;;;;;;;;;;5093329;28;20042;-66
2023/12/20 04:40:24;;;;;;;10.70;1.55;;;;;;;;;;5093579;28;20396;-66
2023/12/20 04:42:50;;;;;;;9.93;1.77;;;;;;;;;;5093237;28;20618;-67
2023/12/20 04:45:16;;;;;;;7.03;1.52;;;;;;;;;;5093190;28;20127;-66
2023/12/20 04:47:42;;;;;;;12.52;1.50;;;;;;;;;;5092914;28;20446;-66
2023/12/20 04:50:08;;;;;;;12.32;1.70;;;;;;;;;;5074924;28;20096;-66
2023/12/20 04:52:33;;;;;;;7.60;1.42;;;;;;;;;;5092496;28;20064;-66
2023/12/20 04:54:59;;;;;;;9.90;2.00;;;;;;;;;;5055313;28;20093;-66
2023/12/20 04:57:24;;;;;;;11.75;1.67;;;;;;;;;;5089517;28;20027;-66
2023/12/20 04:59:50;;;;;;;8.57;2.10;;;;;;;;;;5092783;28;20428;-66
2023/12/20 05:02:15;;;;;;;8.48;1.42;;;;;;;;;;5092964;28;20036;-66
2023/12/20 05:04:41;;;;;;;14.48;1.60;;;;;;;;;;5093060;28;20115;-66
2023/12/20 05:07:07;;;;;;;13.60;1.85;;;;;;;;;;5092714;28;20046;-66
2023/12/20 05:09:32;;;;;;;8.55;1.40;;;;;;;;;;5093015;28;20115;-66
2023/12/20 05:11:58;;;;;;;10.98;1.73;;;;;;;;;;5092357;28;20036;-66
2023/12/20 05:14:24;;;;;;;8.77;1.35;;;;;;;;;;5092822;28;20081;-67
2023/12/20 05:16:50;;;;;;;9.23;1.35;;;;;;;;;;5092118;28;20051;-66
2023/12/20 05:19:15;;;;;;;7.70;1.58;;;;;;;;;;5092666;28;20039;-66
2023/12/20 05:21:40;;;;;;;15.77;3.63;;;;;;;;;;5092044;28;20493;-67
2023/12/20 05:24:06;;;;;;;5.10;1.08;;;;;;;;;;5092555;28;20433;-66
2023/12/20 05:26:31;;;;;;;11.73;1.40;;;;;;;;;;5092564;28;20051;-66
2023/12/20 05:28:56;;;;;;;10.32;1.55;;;;;;;;;;5091963;28;20063;-66
2023/12/20 05:31:22;;;;;;;3.92;0.95;;;;;;;;;;5092594;28;20043;-66
2023/12/20 05:33:47;;;;;;;10.73;1.38;;;;;;;;;;5092110;28;20036;-66
2023/12/20 05:36:14;;;;;;;11.85;1.25;;;;;;;;;;5092712;28;20391;-66
2023/12/20 05:38:40;;;;;;;9.07;1.27;;;;;;;;;;5092281;28;20395;-66
2023/12/20 05:41:05;;;;;;;6.35;1.25;;;;;;;;;;5092186;28;20028;-66
2023/12/20 05:43:30;;;;;;;13.60;1.60;;;;;;;;;;5092006;28;20491;-67
2023/12/20 05:45:56;;;;;;;11.07;1.33;;;;;;;;;;5092408;28;20039;-67
2023/12/20 05:48:21;;;;;;;10.15;1.17;;;;;;;;;;5092276;28;20081;-66
2023/12/20 05:50:46;;;;;;;10.00;1.73;;;;;;;;;;5091366;28;20059;-66
2023/12/20 05:53:12;;;;;;;9.80;1.65;;;;;;;;;;5092022;28;20064;-67
2023/12/20 05:55:37;;;;;;;6.22;1.08;;;;;;;;;;5092156;28;20028;-66
2023/12/20 05:58:03;;;;;;;10.45;2.08;;;;;;;;;;5091613;28;20036;-66
2023/12/20 06:00:28;;;;;;;6.55;1.58;;;;;;;;;;5073489;28;20036;-65
2023/12/20 06:02:53;;;;;;;6.72;1.35;;;;;;;;;;5092044;28;20073;-66
2023/12/20 06:05:19;;;;;;;9.15;1.23;;;;;;;;;;5091826;28;20509;-67
2023/12/20 06:07:47;;;;;;;7.72;1.08;;;;;;;;;;5091790;28;20476;-66
2023/12/20 06:10:13;;;;;;;8.35;1.02;;;;;;;;;;5074089;28;20031;-66
2023/12/20 06:12:39;;;;;;;6.85;0.95;;;;;;;;;;5091086;28;20043;-67
2023/12/20 06:15:05;;;;;;;4.63;1.25;;;;;;;;;;5073817;28;20044;-67
2023/12/20 06:17:31;;;;;;;5.47;1.17;;;;;;;;;;5091599;28;20627;-66
2023/12/20 06:19:56;;;;;;;6.70;1.10;;;;;;;;;;5091673;28;20115;-66
2023/12/20 06:22:22;;;;;;;7.30;1.50;;;;;;;;;;5091253;28;20028;-67
2023/12/20 06:24:47;;;;;;;8.50;1.35;;;;;;;;;;5091526;28;20028;-65
2023/12/20 06:27:13;;;;;;;8.27;1.30;;;;;;;;;;5072647;28;20028;-66
2023/12/20 06:29:38;;;;;;;4.93;1.20;;;;;;;;;;5091624;28;20638;-67
2023/12/20 06:32:04;;;;;;;4.32;0.98;;;;;;;;;;5091266;28;20460;-66
2023/12/20 06:34:29;;;;;;;9.57;1.25;;;;;;;;;;5073199;28;20032;-66
2023/12/20 06:36:54;;;;;;;7.72;1.35;;;;;;;;;;5091078;28;20131;-67
2023/12/20 06:39:20;;;;;;;6.65;1.02;;;;;;;;;;5091350;28;20028;-66
2023/12/20 06:41:45;;;;;;;5.10;1.20;;;;;;;;;;5090955;28;20040;-67
2023/12/20 06:44:10;;;;;;;6.10;1.00;;;;;;;;;;5090578;28;20468;-65
2023/12/20 06:46:36;;;;;;;3.97;1.15;;;;;;;;;;5091216;28;20527;-66
2023/12/20 06:49:01;;;;;;;10.27;1.25;;;;;;;;;;5090871;28;20105;-66
2023/12/20 06:51:26;;;;;;;7.75;1.45;;;;;;;;;;5090948;28;20403;-66
2023/12/20 06:53:52;;;;;;;6.35;1.40;;;;;;;;;;5091051;28;20378;-67
2023/12/20 06:56:17;;;;;;;6.03;1.33;;;;;;;;;;5090715;28;20476;-67
2023/12/20 06:58:43;;;;;;;7.57;1.27;;;;;;;;;;5072606;28;20127;-66
2023/12/20 07:01:15;;;;;;;7.97;1.20;;;;;;;;;;5071469;28;20472;-65
2023/12/20 07:03:41;;;;;;;6.82;1.65;;;;;;;;;;5090764;28;20039;-66
2023/12/20 07:06:07;;;;;;;2.92;1.00;;;;;;;;;;5072557;28;20559;-66
2023/12/20 07:08:32;;;;;;;6.47;1.48;;;;;;;;;;5090476;28;20036;-66
2023/12/20 07:10:58;;;;;;;12.68;1.25;;;;;;;;;;5090613;28;20032;-66
2023/12/20 07:13:23;;;;;;;7.13;1.25;;;;;;;;;;5090466;28;20092;-66
2023/12/20 07:15:49;;;;;;;3.95;1.25;;;;;;;;;;5090811;28;20452;-67
2023/12/20 07:18:14;;;;;;;9.63;1.70;;;;;;;;;;5072257;28;20173;-66
2023/12/20 07:20:39;;;;;;;6.47;1.27;;;;;;;;;;5090538;28;20031;-66
2023/12/20 07:23:05;;;;;;;4.88;1.20;;;;;;;;;;5090452;28;20475;-66
2023/12/20 07:25:32;;;;;;;3.55;1.02;;;;;;;;;;5090564;28;20679;-67
2023/12/20 07:27:58;;;;;;;7.60;1.40;;;;;;;;;;5072543;28;20043;-67
2023/12/20 07:30:23;;;;;;;5.20;1.50;;;;;;;;;;5072309;28;20032;-66
2023/12/20 07:32:49;;;;;;;10.93;1.88;;;;;;;;;;5090254;28;20369;-67
2023/12/20 07:35:15;;;;;;;8.38;1.15;;;;;;;;;;5072496;28;20124;-66
2023/12/20 07:37:41;;;;;;;5.28;1.60;;;;;;;;;;5072037;28;20085;-66
2023/12/20 07:40:07;;;;;;;6.35;0.98;;;;;;;;;;5090293;28;20032;-66
2023/12/20 07:42:32;;;;;;;4.50;1.33;;;;;;;;;;5089927;28;20032;-66
2023/12/20 07:44:58;;;;;;;5.80;1.08;;;;;;;;;;5090355;28;20048;-66
2023/12/20 07:47:25;;;;;;;5.13;0.80;;;;;;;;;;5089944;28;20063;-67
2023/12/20 07:49:51;;;;;;;5.30;1.15;;;;;;;;;;5067465;28;20032;-66
2023/12/20 07:52:18;;;;;;;3.92;0.95;;;;;;;;;;5068862;28;20044;-66
2023/12/20 07:54:43;;;;;;;6.78;1.50;;;;;;;;;;5070182;28;20041;-67
2023/12/20 07:57:10;;;;;;;5.78;1.27;;;;;;;;;;5091268;28;20172;-67
2023/12/20 07:59:35;;;;;;;11.45;1.55;;;;;;;;;;5094215;28;20032;-66
2023/12/20 08:02:01;;;;;;;5.03;1.13;;;;;;;;;;5093194;28;20364;-66
2023/12/20 08:04:27;;;;;;;3.40;1.00;;;;;;;;;;5090718;28;20063;-66
2023/12/20 08:06:52;;;;;;;8.23;0.88;;;;;;;;;;5093823;28;20036;-66
2023/12/20 08:09:17;;;;;;;8.65;1.10;;;;;;;;;;5093747;28;20036;-66
2023/12/20 08:11:49;;;;;;;7.68;1.38;;;;;;;;;;5093847;28;20040;-66
2023/12/20 08:14:15;;;;;;;5.90;1.25;;;;;;;;;;5076022;28;20032;-66
2023/12/20 08:16:40;;;;;;;8.38;1.30;;;;;;;;;;5075528;28;20050;-66
2023/12/20 08:19:06;;;;;;;8.10;1.33;;;;;;;;;;5093873;28;20048;-67
2023/12/20 08:21:31;;;;;;;7.32;2.08;;;;;;;;;;5074797;28;20039;-66
2023/12/20 08:23:56;;;;;;;7.85;1.58;;;;;;;;;;5093630;28;20047;-66
2023/12/20 08:26:23;;;;;;;4.35;2.42;;;;;;;;;;5091602;28;20039;-66
2023/12/20 08:28:48;;;;;;;9.45;3.30;;;;;;;;;;5075575;28;20057;-66
2023/12/20 08:31:18;;;;;;;4.20;1.60;;;;;;;;;;5093272;28;20032;-67
2023/12/20 08:33:47;;;;;;;4.18;1.00;;;;;;;;;;5093309;28;20032;-66
2023/12/20 08:36:13;;;;;;;5.55;1.60;;;;;;;;;;5074678;28;20488;-67
2023/12/20 08:38:39;;;;;;;7.93;1.45;;;;;;;;;;5093353;28;20046;-67
2023/12/20 08:41:05;;;;;;;5.18;1.10;;;;;;;;;;5075406;28;20114;-66
2023/12/20 08:43:36;;;;;;;4.78;1.10;;;;;;;;;;5075410;28;20032;-67
2023/12/20 08:46:02;;;;;;;5.95;1.20;;;;;;;;;;5079606;28;20063;-67
2023/12/20 08:48:28;;;;;;;8.48;1.73;;;;;;;;;;5067230;28;20090;-67
2023/12/20 08:50:54;;;;;;;5.22;2.03;;;;;;;;;;5093431;28;20364;-67
2023/12/20 08:53:19;;;;;;;4.63;1.27;;;;;;;;;;5091451;28;20035;-67
2023/12/20 08:55:45;;;;;;;11.93;2.00;;;;;;;;;;5092601;28;20036;-67
2023/12/20 08:58:10;;;;;;;4.80;1.10;;;;;;;;;;5074619;28;20028;-67
2023/12/20 09:00:36;;;;;;;11.00;2.17;;;;;;;;;;5074970;28;20043;-68
2023/12/20 09:03:02;;;;;;;6.40;1.88;;;;;;;;;;5092659;28;20046;-67
2023/12/20 09:05:28;;;;;;;7.03;2.55;;;;;;;;;;5058129;28;20509;-67
2023/12/20 09:07:54;;;;;;;6.57;3.30;;;;;;;;;;5091552;28;20028;-68
2023/12/20 09:10:22;;;;;;;12.90;2.63;;;;;;;;;;5092461;28;20410;-68
2023/12/20 09:12:51;;;;;;;6.57;1.67;;;;;;;;;;5078073;28;20028;-68
2023/12/20 09:15:16;;;;;;;3.63;2.00;;;;;;;;;;5074102;28;20156;-67
2023/12/20 09:17:41;;;;;;;9.25;2.28;;;;;;;;;;5091610;28;20128;-67
2023/12/20 09:20:08;;;;;;;9.00;1.52;;;;;;;;;;5074425;28;20032;-67
2023/12/20 09:22:34;;;;;;;10.93;1.50;;;;;;;;;;5074300;28;20391;-67
2023/12/20 09:25:00;;;;;;;6.80;1.90;;;;;;;;;;5082362;28;20099;-67
2023/12/20 09:27:25;;;;;;;4.35;1.48;;;;;;;;;;5091376;28;20042;-67
2023/12/20 09:29:50;;;;;;;6.25;1.85;;;;;;;;;;5091224;28;20093;-67
2023/12/20 09:32:16;;;;;;;5.97;1.30;;;;;;;;;;5091781;28;20040;-66
2023/12/20 09:34:41;;;;;;;6.15;1.90;;;;;;;;;;5091705;28;20036;-67
2023/12/20 09:37:07;;;;;;;14.57;2.70;;;;;;;;;;5091460;28;20036;-67
2023/12/20 09:39:33;;;;;;;11.05;1.80;;;;;;;;;;5090454;28;20024;-67
2023/12/20 09:42:03;;;;;;;5.75;1.27;;;;;;;;;;5091247;28;20028;-67
2023/12/20 09:44:29;;;;;;;7.38;1.30;;;;;;;;;;5091288;28;20039;-67
2023/12/20 09:46:55;;;;;;;5.38;1.25;;;;;;;;;;5073270;28;20614;-67
2023/12/20 09:49:21;;;;;;;3.50;1.20;;;;;;;;;;5074943;28;20471;-68
2023/12/20 09:51:47;;;;;;;7.35;1.42;;;;;;;;;;5086779;28;20050;-68
2023/12/20 09:54:16;;;;;;;5.38;1.58;;;;;;;;;;5072930;28;20112;-67
2023/12/20 09:56:41;;;;;;;7.35;1.67;;;;;;;;;;5072551;28;20036;-66
2023/12/20 09:59:07;;;;;;;8.05;1.20;;;;;;;;;;5087451;28;20058;-67
2023/12/20 10:01:34;;;;;;;6.50;1.20;;;;;;;;;;5072208;28;20028;-66
2023/12/20 10:04:00;;;;;;;6.85;1.05;;;;;;;;;;5087134;28;20032;-67
2023/12/20 10:06:25;;;;;;;4.03;1.30;;;;;;;;;;5070179;28;20044;-66
2023/12/20 10:08:51;;;;;;;7.75;1.48;;;;;;;;;;5087929;28;20028;-66
2023/12/20 10:11:16;;;;;;;4.88;1.45;;;;;;;;;;5088620;28;20528;-67
2023/12/20 10:13:43;;;;;;;8.63;1.60;;;;;;;;;;5070376;28;20380;-67
2023/12/20 10:16:08;;;;;;;5.60;1.20;;;;;;;;;;5088083;28;20031;-66
2023/12/20 10:18:34;;;;;;;3.22;0.80;;;;;;;;;;5069647;28;20031;-66
2023/12/20 10:21:00;;;;;;;3.90;1.20;;;;;;;;;;5087494;28;20082;-67
2023/12/20 10:23:25;;;;;;;6.55;1.10;;;;;;;;;;5087626;28;20032;-67
2023/12/20 10:26:00;;;;;;;3.67;0.93;;;;;;;;;;5088631;28;20456;-66
2023/12/20 10:28:28;;;;;;;3.92;1.00;;;;;;;;;;5088183;28;20706;-66
2023/12/20 10:30:57;;;;;;;3.22;1.40;;;;;;;;;;5070587;28;20071;-66
2023/12/20 10:33:26;;;;;;;3.55;1.15;;;;;;;;;;5087731;28;20039;-67
2023/12/20 10:35:52;;;;;;;2.90;1.17;;;;;;;;;;5087498;28;20502;-66
2023/12/20 10:38:18;;;;;;;4.97;1.50;;;;;;;;;;5068193;28;20043;-67
2023/12/20 10:40:45;;;;;;;3.05;0.82;;;;;;;;;;5087660;28;20036;-66
2023/12/20 10:43:11;;;;;;;4.20;0.98;;;;;;;;;;5087449;28;20032;-67
2023/12/20 10:45:36;;;;;;;2.45;0.85;;;;;;;;;;5069709;28;20135;-67
2023/12/20 10:48:05;;;;;;;3.25;0.50;;;;;;;;;;5079897;28;20391;-67
2023/12/20 10:50:31;;;;;;;4.35;0.70;;;;;;;;;;5087542;28;20110;-67
2023/12/20 10:52:57;;;;;;;2.05;0.52;;;;;;;;;;5076117;28;20452;-67
2023/12/20 10:55:23;;;;;;;2.15;0.65;;;;;;;;;;5081609;28;20050;-67
2023/12/20 10:57:52;;;;;;;2.65;0.47;;;;;;;;;;5080606;28;20051;-66
2023/12/20 11:00:18;;;;;;;2.33;0.90;;;;;;;;;;5086976;28;20035;-67
2023/12/20 11:02:44;;;;;;;3.05;1.50;;;;;;;;;;5086975;28;20044;-67
2023/12/20 11:05:15;;;;;;;0.98;0.50;;;;;;;;;;5086828;28;20051;-67
2023/12/20 11:07:48;;;;;;;1.55;0.40;;;;;;;;;;5086207;28;20032;-66
2023/12/20 11:10:22;;;;;;;0.85;0.40;;;;;;;;;;5086426;28;20548;-67
2023/12/20 11:12:53;;;;;;;0.40;0.40;;;;;;;;;;5064392;28;20028;-67
2023/12/20 11:15:19;;;;;;;0.80;0.40;;;;;;;;;;5062207;28;20044;-66
2023/12/20 11:17:46;;;;;;;0.85;0.40;;;;;;;;;;5057513;28;20050;-67
2023/12/20 11:20:12;;;;;;;1.40;0.55;;;;;;;;;;5084279;28;20034;-66
2023/12/20 11:22:38;;;;;;;1.67;0.43;;;;;;;;;;5085333;28;20039;-66
2023/12/20 11:25:08;;;;;;;1.80;0.50;;;;;;;;;;5071240;28;20028;-67
2023/12/20 11:27:35;;;;;;;0.55;0.30;;;;;;;;;;5068959;28;20031;-67
2023/12/20 11:30:03;;;;;;;1.55;0.50;;;;;;;;;;5086167;28;20051;-67
2023/12/20 11:32:28;;;;;;;0.95;0.40;;;;;;;;;;5067551;28;20399;-67
2023/12/20 11:34:55;;;;;;;2.03;1.00;;;;;;;;;;5068399;28;20040;-67
2023/12/20 11:37:22;;;;;;;1.67;0.80;;;;;;;;;;5086664;28;20115;-67
2023/12/20 11:39:56;;;;;;;0.85;0.60;;;;;;;;;;5086770;28;20043;-67
2023/12/20 11:42:22;;;;;;;1.30;0.47;;;;;;;;;;5068627;28;20040;-67
2023/12/20 11:44:47;;;;;;;0.75;0.30;;;;;;;;;;5087104;28;20142;-67
2023/12/20 11:47:13;;;;;;;2.38;0.45;;;;;;;;;;5068417;28;20043;-67
2023/12/20 11:49:39;;;;;;;3.42;0.50;;;;;;;;;;5068663;28;20028;-66
2023/12/20 11:52:04;;;;;;;0.60;0.32;;;;;;;;;;5086413;28;20036;-66
2023/12/20 11:54:30;;;;;;;0.57;0.30;;;;;;;;;;5083030;28;20039;-67
2023/12/20 11:56:55;;;;;;;0.90;0.50;;;;;;;;;;5086821;28;20054;-67
2023/12/20 11:59:21;;;;;;;0.98;0.43;;;;;;;;;;5085940;28;20035;-66
2023/12/20 12:01:50;;;;;;;2.85;0.45;;;;;;;;;;5086433;28;20115;-67
2023/12/20 12:04:17;;;;;;;4.35;0.50;;;;;;;;;;5067479;28;20393;-66
2023/12/20 12:06:43;;;;;;;0.32;0.30;;;;;;;;;;5086054;28;20028;-66
2023/12/20 12:09:08;;;;;;;3.38;0.50;;;;;;;;;;5068091;28;20073;-67
2023/12/20 12:11:33;;;;;;;0.65;0.38;;;;;;;;;;5087341;28;20040;-66
2023/12/20 12:13:59;;;;;;;1.85;0.40;;;;;;;;;;5085896;28;20028;-67
2023/12/20 12:16:24;;;;;;;2.10;0.65;;;;;;;;;;5086709;28;20036;-67
2023/12/20 12:18:57;;;;;;;3.38;0.80;;;;;;;;;;5086206;28;20036;-67
2023/12/20 12:21:22;;;;;;;0.95;0.40;;;;;;;;;;5084984;28;20035;-67
2023/12/20 12:23:48;;;;;;;0.80;0.45;;;;;;;;;;5083256;28;20028;-66
2023/12/20 12:26:13;;;;;;;2.25;0.30;;;;;;;;;;5086762;28;20040;-66
2023/12/20 12:28:42;;;;;;;4.35;0.60;;;;;;;;;;5085916;28;20399;-67
2023/12/20 12:31:09;;;;;;;2.40;0.60;;;;;;;;;;5067828;28;20036;-66
2023/12/20 12:33:34;;;;;;;1.27;0.40;;;;;;;;;;5086381;28;20064;-67
2023/12/20 12:36:01;;;;;;;2.20;0.50;;;;;;;;;;5085806;28;20036;-67
2023/12/20 12:38:27;;;;;;;1.63;0.40;;;;;;;;;;5086241;28;20395;-67
2023/12/20 12:40:53;;;;;;;1.95;0.50;;;;;;;;;;5087024;28;20044;-67
2023/12/20 12:43:19;;;;;;;2.08;0.45;;;;;;;;;;5088002;28;20097;-67
2023/12/20 12:45:44;;;;;;;2.75;0.57;;;;;;;;;;5086854;28;20462;-67
2023/12/20 12:48:10;;;;;;;1.85;0.57;;;;;;;;;;5090110;28;20123;-67
2023/12/20 12:50:35;;;;;;;3.20;0.70;;;;;;;;;;5088859;28;20118;-66
2023/12/20 12:53:02;;;;;;;1.48;0.52;;;;;;;;;;5080051;28;20036;-67
2023/12/20 12:55:28;;;;;;;2.03;0.60;;;;;;;;;;5083387;28;20379;-67
2023/12/20 12:57:53;;;;;;;3.08;0.60;;;;;;;;;;5083276;28;20143;-67
2023/12/20 13:00:19;;;;;;;2.67;0.60;;;;;;;;;;5071153;28;20499;-67
2023/12/20 13:02:44;;;;;;;2.22;0.55;;;;;;;;;;5089320;28;20031;-67
2023/12/20 13:05:10;;;;;;;2.25;0.70;;;;;;;;;;5088762;28;20050;-66
2023/12/20 13:07:35;;;;;;;1.60;0.50;;;;;;;;;;5089612;28;20036;-67
2023/12/20 13:10:01;;;;;;;3.60;1.13;;;;;;;;;;5086267;28;20044;-67
2023/12/20 13:12:26;;;;;;;1.25;0.60;;;;;;;;;;5088671;28;20035;-66
2023/12/20 13:14:51;;;;;;;1.48;0.40;;;;;;;;;;5089294;28;20070;-66
2023/12/20 13:17:17;;;;;;;2.58;0.60;;;;;;;;;;5087923;28;20119;-67
2023/12/20 13:19:42;;;;;;;2.17;0.60;;;;;;;;;;5070437;28;20372;-67
2023/12/20 13:22:07;;;;;;;5.32;0.82;;;;;;;;;;5092335;28;20032;-67
2023/12/20 13:24:33;;;;;;;1.27;0.65;;;;;;;;;;5082721;28;20107;-67
2023/12/20 13:26:58;;;;;;;1.50;0.60;;;;;;;;;;5091291;28;20035;-68
2023/12/20 13:29:27;;;;;;;4.18;0.80;;;;;;;;;;5094788;28;20039;-67
2023/12/20 13:31:52;;;;;;;0.82;0.50;;;;;;;;;;5071999;28;20495;-67
2023/12/20 13:34:17;;;;;;;3.92;1.88;;;;;;;;;;5070230;28;20046;-67
2023/12/20 13:36:45;;;;;;;4.25;1.00;;;;;;;;;;5089409;28;20121;-66
2023/12/20 13:39:11;;;;;;;2.40;0.90;;;;;;;;;;5072498;28;20051;-67
2023/12/20 13:41:37;;;;;;;2.85;0.80;;;;;;;;;;5086937;28;20112;-67
2023/12/20 13:44:03;;;;;;;4.70;0.82;;;;;;;;;;5086397;28;20048;-67
2023/12/20 13:46:28;;;;;;;1.67;0.68;;;;;;;;;;5079031;28;20122;-67
2023/12/20 13:48:54;;;;;;;3.35;0.88;;;;;;;;;;5087288;28;20138;-67
2023/12/20 13:51:20;;;;;;;2.95;0.90;;;;;;;;;;5086885;28;20031;-66
2023/12/20 13:53:46;;;;;;;1.00;0.60;;;;;;;;;;5086749;28;20042;-67
2023/12/20 13:56:11;;;;;;;4.07;0.73;;;;;;;;;;5089891;28;20027;-67
2023/12/20 13:58:37;;;;;;;3.22;0.90;;;;;;;;;;5085055;28;20043;-66
2023/12/20 14:01:02;;;;;;;3.92;1.00;;;;;;;;;;5086039;28;20040;-67
2023/12/20 14:03:27;;;;;;;3.50;0.80;;;;;;;;;;5086984;28;20047;-67
2023/12/20 14:05:53;;;;;;;5.03;0.93;;;;;;;;;;5087827;28;20036;-67
2023/12/20 14:08:18;;;;;;;4.45;0.98;;;;;;;;;;5088263;28;20032;-67
2023/12/20 14:10:43;;;;;;;2.25;0.57;;;;;;;;;;5066983;28;20035;-67
2023/12/20 14:13:09;;;;;;;2.67;0.90;;;;;;;;;;5084699;28;20035;-66
2023/12/20 14:15:37;;;;;;;2.88;0.70;;;;;;;;;;5093498;28;20050;-66
2023/12/20 14:18:06;;;;;;;3.20;0.90;;;;;;;;;;5068813;28;20028;-67
2023/12/20 14:20:32;;;;;;;3.00;0.73;;;;;;;;;;5075569;28;20483;-67
2023/12/20 14:22:57;;;;;;;2.20;0.70;;;;;;;;;;5084329;28;20050;-67
2023/12/20 14:25:23;;;;;;;5.13;0.98;;;;;;;;;;5087470;28;20032;-66
2023/12/20 14:27:48;;;;;;;1.67;0.75;;;;;;;;;;5086949;28;20471;-66
2023/12/20 14:30:14;;;;;;;7.68;1.05;;;;;;;;;;5086635;28;20097;-66